sensor_id;sensor_type;location;lat;lon;timestamp;P1;durP1;ratioP1;P2;durP2;ratioP2
31836;SDS011;18401;49.344;6.240;2022-08-11T00:02:22;1.52;;;1.42;;
31836;SDS011;18401;49.344;6.240;2022-08-11T00:04:53;3.75;;;1.95;;
31836;SDS011;18401;49.344;6.240;2022-08-11T00:07:20;2.55;;;1.80;;
31836;SDS011;18401;49.344;6.240;2022-08-11T00:09:46;2.35;;;1.83;;
31836;SDS011;18401;49.344;6.240;2022-08-11T00:12:13;3.33;;;1.88;;
31836;SDS011;18401;49.344;6.240;2022-08-11T00:14:41;2.78;;;1.50;;
31836;SDS011;18401;49.344;6.240;2022-08-11T00:17:08;2.58;;;2.35;;
31836;SDS011;18401;49.344;6.240;2022-08-11T00:19:37;4.10;;;1.77;;
31836;SDS011;18401;49.344;6.240;2022-08-11T00:22:06;2.50;;;2.00;;
31836;SDS011;18401;49.344;6.240;2022-08-11T00:24:35;3.17;;;2.15;;
31836;SDS011;18401;49.344;6.240;2022-08-11T00:27:03;11.68;;;2.53;;
31836;SDS011;18401;49.344;6.240;2022-08-11T00:29:29;2.17;;;1.98;;
31836;SDS011;18401;49.344;6.240;2022-08-11T00:31:57;5.28;;;2.10;;
31836;SDS011;18401;49.344;6.240;2022-08-11T00:34:26;1.92;;;1.80;;
31836;SDS011;18401;49.344;6.240;2022-08-11T00:37:05;3.85;;;2.20;;
31836;SDS011;18401;49.344;6.240;2022-08-11T00:39:35;2.20;;;2.00;;
31836;SDS011;18401;49.344;6.240;2022-08-11T00:42:13;4.05;;;2.00;;
31836;SDS011;18401;49.344;6.240;2022-08-11T00:44:54;4.45;;;2.22;;
31836;SDS011;18401;49.344;6.240;2022-08-11T00:50:28;5.97;;;2.17;;
31836;SDS011;18401;49.344;6.240;2022-08-11T01:13:49;2.58;;;2.05;;
31836;SDS011;18401;49.344;6.240;2022-08-11T01:53:58;3.55;;;2.00;;
31836;SDS011;18401;49.344;6.240;2022-08-11T01:59:20;4.95;;;2.40;;
31836;SDS011;18401;49.344;6.240;2022-08-11T02:02:06;3.58;;;2.28;;
31836;SDS011;18401;49.344;6.240;2022-08-11T02:13:49;3.17;;;2.28;;
31836;SDS011;18401;49.344;6.240;2022-08-11T02:22:02;4.80;;;2.47;;
31836;SDS011;18401;49.344;6.240;2022-08-11T02:24:59;4.95;;;2.22;;
31836;SDS011;18401;49.344;6.240;2022-08-11T02:30:07;2.72;;;2.30;;
31836;SDS011;18401;49.344;6.240;2022-08-11T02:35:39;3.70;;;2.15;;
31836;SDS011;18401;49.344;6.240;2022-08-11T02:38:15;2.83;;;2.40;;
31836;SDS011;18401;49.344;6.240;2022-08-11T03:02:01;2.53;;;1.92;;
31836;SDS011;18401;49.344;6.240;2022-08-11T03:05:11;2.67;;;2.47;;
31836;SDS011;18401;49.344;6.240;2022-08-11T03:10:20;2.85;;;2.20;;
31836;SDS011;18401;49.344;6.240;2022-08-11T03:27:08;3.97;;;2.38;;
31836;SDS011;18401;49.344;6.240;2022-08-11T03:35:44;2.42;;;2.20;;
31836;SDS011;18401;49.344;6.240;2022-08-11T03:49:57;3.28;;;2.60;;
31836;SDS011;18401;49.344;6.240;2022-08-11T04:20:52;4.10;;;2.58;;
31836;SDS011;18401;49.344;6.240;2022-08-11T04:26:44;2.97;;;2.78;;
31836;SDS011;18401;49.344;6.240;2022-08-11T04:32:15;3.88;;;3.03;;
31836;SDS011;18401;49.344;6.240;2022-08-11T04:38:18;2.70;;;2.50;;
31836;SDS011;18401;49.344;6.240;2022-08-11T04:41:22;4.25;;;2.67;;
31836;SDS011;18401;49.344;6.240;2022-08-11T04:53:57;3.92;;;3.13;;
31836;SDS011;18401;49.344;6.240;2022-08-11T04:56:49;2.90;;;2.70;;
31836;SDS011;18401;49.344;6.240;2022-08-11T05:17:08;4.03;;;2.60;;
31836;SDS011;18401;49.344;6.240;2022-08-11T05:19:56;4.32;;;2.92;;
31836;SDS011;18401;49.344;6.240;2022-08-11T05:22:42;2.80;;;2.55;;
31836;SDS011;18401;49.344;6.240;2022-08-11T05:25:34;3.00;;;2.80;;
31836;SDS011;18401;49.344;6.240;2022-08-11T05:31:34;9.93;;;3.13;;
31836;SDS011;18401;49.344;6.240;2022-08-11T05:34:27;3.08;;;2.75;;
31836;SDS011;18401;49.344;6.240;2022-08-11T05:37:19;2.55;;;2.35;;
31836;SDS011;18401;49.344;6.240;2022-08-11T05:39:51;2.63;;;2.20;;
31836;SDS011;18401;49.344;6.240;2022-08-11T05:42:47;2.72;;;2.53;;
31836;SDS011;18401;49.344;6.240;2022-08-11T05:45:34;2.40;;;1.90;;
31836;SDS011;18401;49.344;6.240;2022-08-11T05:48:20;5.38;;;2.08;;
31836;SDS011;18401;49.344;6.240;2022-08-11T05:51:04;3.78;;;2.30;;
31836;SDS011;18401;49.344;6.240;2022-08-11T05:53:57;3.83;;;2.20;;
31836;SDS011;18401;49.344;6.240;2022-08-11T05:56:43;4.90;;;2.50;;
31836;SDS011;18401;49.344;6.240;2022-08-11T05:59:15;3.20;;;2.33;;
31836;SDS011;18401;49.344;6.240;2022-08-11T06:01:42;5.72;;;2.63;;
31836;SDS011;18401;49.344;6.240;2022-08-11T06:04:12;4.07;;;2.50;;
31836;SDS011;18401;49.344;6.240;2022-08-11T06:06:50;2.42;;;1.90;;
31836;SDS011;18401;49.344;6.240;2022-08-11T06:10:05;5.55;;;2.45;;
31836;SDS011;18401;49.344;6.240;2022-08-11T06:12:15;4.63;;;2.15;;
31836;SDS011;18401;49.344;6.240;2022-08-11T06:14:43;5.32;;;1.98;;
31836;SDS011;18401;49.344;6.240;2022-08-11T06:17:10;3.35;;;1.75;;
31836;SDS011;18401;49.344;6.240;2022-08-11T06:19:38;3.60;;;2.10;;
31836;SDS011;18401;49.344;6.240;2022-08-11T06:22:07;1.70;;;1.60;;
31836;SDS011;18401;49.344;6.240;2022-08-11T06:24:38;5.20;;;1.90;;
31836;SDS011;18401;49.344;6.240;2022-08-11T06:27:05;1.83;;;1.73;;
31836;SDS011;18401;49.344;6.240;2022-08-11T06:29:33;4.25;;;2.22;;
31836;SDS011;18401;49.344;6.240;2022-08-11T06:32:04;4.88;;;1.80;;
31836;SDS011;18401;49.344;6.240;2022-08-11T06:42:47;3.92;;;2.25;;
31836;SDS011;18401;49.344;6.240;2022-08-11T06:47:55;7.97;;;2.30;;
31836;SDS011;18401;49.344;6.240;2022-08-11T06:50:25;6.68;;;1.95;;
31836;SDS011;18401;49.344;6.240;2022-08-11T06:53:10;2.38;;;1.70;;
31836;SDS011;18401;49.344;6.240;2022-08-11T06:55:40;2.85;;;1.85;;
31836;SDS011;18401;49.344;6.240;2022-08-11T06:58:27;2.13;;;1.60;;
31836;SDS011;18401;49.344;6.240;2022-08-11T07:01:15;3.72;;;1.83;;
31836;SDS011;18401;49.344;6.240;2022-08-11T07:03:51;4.32;;;1.65;;
31836;SDS011;18401;49.344;6.240;2022-08-11T07:14:32;2.25;;;1.73;;
31836;SDS011;18401;49.344;6.240;2022-08-11T07:17:21;2.10;;;1.70;;
31836;SDS011;18401;49.344;6.240;2022-08-11T07:19:50;2.35;;;1.73;;
31836;SDS011;18401;49.344;6.240;2022-08-11T07:22:38;6.93;;;2.15;;
31836;SDS011;18401;49.344;6.240;2022-08-11T07:25:23;2.15;;;1.30;;
31836;SDS011;18401;49.344;6.240;2022-08-11T07:28:10;7.38;;;1.80;;
31836;SDS011;18401;49.344;6.240;2022-08-11T07:31:00;1.52;;;1.42;;
31836;SDS011;18401;49.344;6.240;2022-08-11T07:36:28;3.28;;;1.58;;
31836;SDS011;18401;49.344;6.240;2022-08-11T07:38:55;4.50;;;1.50;;
31836;SDS011;18401;49.344;6.240;2022-08-11T07:41:22;2.88;;;1.73;;
31836;SDS011;18401;49.344;6.240;2022-08-11T07:43:50;2.08;;;1.63;;
31836;SDS011;18401;49.344;6.240;2022-08-11T07:46:19;3.50;;;1.55;;
31836;SDS011;18401;49.344;6.240;2022-08-11T07:49:06;3.42;;;1.45;;
31836;SDS011;18401;49.344;6.240;2022-08-11T07:51:52;3.85;;;1.15;;
31836;SDS011;18401;49.344;6.240;2022-08-11T07:54:37;4.63;;;1.50;;
31836;SDS011;18401;49.344;6.240;2022-08-11T07:57:06;4.00;;;1.40;;
31836;SDS011;18401;49.344;6.240;2022-08-11T07:59:52;2.70;;;1.10;;
31836;SDS011;18401;49.344;6.240;2022-08-11T08:02:36;1.92;;;1.13;;
31836;SDS011;18401;49.344;6.240;2022-08-11T08:05:22;1.75;;;1.23;;
31836;SDS011;18401;49.344;6.240;2022-08-11T08:08:07;1.50;;;1.30;;
31836;SDS011;18401;49.344;6.240;2022-08-11T08:13:37;7.50;;;1.20;;
31836;SDS011;18401;49.344;6.240;2022-08-11T08:16:22;1.13;;;1.03;;
31836;SDS011;18401;49.344;6.240;2022-08-11T08:19:06;5.07;;;1.43;;
31836;SDS011;18401;49.344;6.240;2022-08-11T08:21:35;5.72;;;1.00;;
31836;SDS011;18401;49.344;6.240;2022-08-11T08:24:02;7.97;;;1.60;;
31836;SDS011;18401;49.344;6.240;2022-08-11T08:26:30;3.05;;;1.33;;
31836;SDS011;18401;49.344;6.240;2022-08-11T08:29:17;2.38;;;1.10;;
31836;SDS011;18401;49.344;6.240;2022-08-11T08:32:02;2.22;;;1.15;;
31836;SDS011;18401;49.344;6.240;2022-08-11T08:34:28;1.50;;;1.30;;
31836;SDS011;18401;49.344;6.240;2022-08-11T08:36:55;3.50;;;0.93;;
31836;SDS011;18401;49.344;6.240;2022-08-11T08:39:21;1.27;;;1.17;;
31836;SDS011;18401;49.344;6.240;2022-08-11T08:41:51;3.38;;;1.20;;
31836;SDS011;18401;49.344;6.240;2022-08-11T08:44:19;4.07;;;1.02;;
31836;SDS011;18401;49.344;6.240;2022-08-11T08:46:47;2.70;;;1.30;;
31836;SDS011;18401;49.344;6.240;2022-08-11T08:49:18;3.60;;;1.30;;
31836;SDS011;18401;49.344;6.240;2022-08-11T08:51:51;1.25;;;0.88;;
31836;SDS011;18401;49.344;6.240;2022-08-11T08:54:20;1.75;;;0.90;;
31836;SDS011;18401;49.344;6.240;2022-08-11T08:56:50;4.15;;;1.17;;
31836;SDS011;18401;49.344;6.240;2022-08-11T08:59:20;1.23;;;1.08;;
31836;SDS011;18401;49.344;6.240;2022-08-11T09:02:06;1.55;;;1.30;;
31836;SDS011;18401;49.344;6.240;2022-08-11T09:04:37;2.50;;;1.35;;
31836;SDS011;18401;49.344;6.240;2022-08-11T09:07:11;4.65;;;1.17;;
31836;SDS011;18401;49.344;6.240;2022-08-11T09:09:42;1.52;;;1.20;;
31836;SDS011;18401;49.344;6.240;2022-08-11T09:12:11;1.98;;;1.13;;
31836;SDS011;18401;49.344;6.240;2022-08-11T09:14:38;4.38;;;1.25;;
31836;SDS011;18401;49.344;6.240;2022-08-11T09:17:24;4.47;;;1.00;;
31836;SDS011;18401;49.344;6.240;2022-08-11T09:19:55;2.88;;;1.00;;
31836;SDS011;18401;49.344;6.240;2022-08-11T09:22:32;2.70;;;1.13;;
31836;SDS011;18401;49.344;6.240;2022-08-11T09:25:19;5.45;;;1.23;;
31836;SDS011;18401;49.344;6.240;2022-08-11T09:28:04;3.42;;;1.08;;
31836;SDS011;18401;49.344;6.240;2022-08-11T09:30:34;2.17;;;0.88;;
31836;SDS011;18401;49.344;6.240;2022-08-11T09:33:01;1.77;;;1.02;;
31836;SDS011;18401;49.344;6.240;2022-08-11T09:35:29;1.65;;;0.90;;
31836;SDS011;18401;49.344;6.240;2022-08-11T09:37:57;1.15;;;0.95;;
31836;SDS011;18401;49.344;6.240;2022-08-11T09:40:44;8.10;;;1.40;;
31836;SDS011;18401;49.344;6.240;2022-08-11T09:43:12;1.75;;;0.88;;
31836;SDS011;18401;49.344;6.240;2022-08-11T09:46:01;1.17;;;1.00;;
31836;SDS011;18401;49.344;6.240;2022-08-11T09:48:29;1.25;;;0.80;;
31836;SDS011;18401;49.344;6.240;2022-08-11T09:50:59;1.00;;;0.90;;
31836;SDS011;18401;49.344;6.240;2022-08-11T09:53:26;1.75;;;1.17;;
31836;SDS011;18401;49.344;6.240;2022-08-11T09:55:59;4.03;;;1.05;;
31836;SDS011;18401;49.344;6.240;2022-08-11T09:58:45;2.78;;;0.98;;
31836;SDS011;18401;49.344;6.240;2022-08-11T10:01:11;1.52;;;0.90;;
31836;SDS011;18401;49.344;6.240;2022-08-11T10:03:51;1.38;;;1.10;;
31836;SDS011;18401;49.344;6.240;2022-08-11T10:06:39;2.35;;;1.20;;
31836;SDS011;18401;49.344;6.240;2022-08-11T10:09:24;1.67;;;1.05;;
31836;SDS011;18401;49.344;6.240;2022-08-11T10:11:52;3.65;;;1.00;;
31836;SDS011;18401;49.344;6.240;2022-08-11T10:14:23;6.32;;;1.02;;
31836;SDS011;18401;49.344;6.240;2022-08-11T10:17:10;1.90;;;1.08;;
31836;SDS011;18401;49.344;6.240;2022-08-11T10:19:38;3.20;;;1.35;;
31836;SDS011;18401;49.344;6.240;2022-08-11T10:22:07;1.20;;;0.90;;
31836;SDS011;18401;49.344;6.240;2022-08-11T10:24:51;4.78;;;1.25;;
31836;SDS011;18401;49.344;6.240;2022-08-11T10:27:40;4.80;;;0.95;;
31836;SDS011;18401;49.344;6.240;2022-08-11T10:30:07;4.32;;;1.10;;
31836;SDS011;18401;49.344;6.240;2022-08-11T10:32:53;2.08;;;0.88;;
31836;SDS011;18401;49.344;6.240;2022-08-11T10:35:38;2.05;;;1.02;;
31836;SDS011;18401;49.344;6.240;2022-08-11T10:38:07;0.70;;;0.70;;
31836;SDS011;18401;49.344;6.240;2022-08-11T10:40:33;3.42;;;0.90;;
31836;SDS011;18401;49.344;6.240;2022-08-11T10:43:01;2.25;;;0.80;;
31836;SDS011;18401;49.344;6.240;2022-08-11T10:45:29;4.63;;;0.70;;
31836;SDS011;18401;49.344;6.240;2022-08-11T10:48:16;5.05;;;0.70;;
31836;SDS011;18401;49.344;6.240;2022-08-11T10:50:45;4.38;;;1.05;;
31836;SDS011;18401;49.344;6.240;2022-08-11T10:53:31;2.03;;;0.80;;
31836;SDS011;18401;49.344;6.240;2022-08-11T10:56:17;1.05;;;0.80;;
31836;SDS011;18401;49.344;6.240;2022-08-11T10:59:02;0.98;;;0.88;;
31836;SDS011;18401;49.344;6.240;2022-08-11T11:01:34;3.47;;;0.75;;
31836;SDS011;18401;49.344;6.240;2022-08-11T11:04:04;4.95;;;0.70;;
31836;SDS011;18401;49.344;6.240;2022-08-11T11:14:45;6.32;;;1.00;;
31836;SDS011;18401;49.344;6.240;2022-08-11T11:17:33;2.20;;;0.95;;
31836;SDS011;18401;49.344;6.240;2022-08-11T11:23:32;1.25;;;0.77;;
31836;SDS011;18401;49.344;6.240;2022-08-11T11:36:53;3.25;;;0.93;;
31836;SDS011;18401;49.344;6.240;2022-08-11T11:39:24;3.08;;;0.90;;
31836;SDS011;18401;49.344;6.240;2022-08-11T11:41:53;6.03;;;0.80;;
31836;SDS011;18401;49.344;6.240;2022-08-11T11:44:21;5.10;;;1.05;;
31836;SDS011;18401;49.344;6.240;2022-08-11T11:46:48;3.90;;;0.80;;
31836;SDS011;18401;49.344;6.240;2022-08-11T11:49:18;2.05;;;0.80;;
31836;SDS011;18401;49.344;6.240;2022-08-11T11:51:49;11.35;;;0.90;;
31836;SDS011;18401;49.344;6.240;2022-08-11T11:54:22;2.00;;;0.80;;
31836;SDS011;18401;49.344;6.240;2022-08-11T11:56:51;1.80;;;1.00;;
31836;SDS011;18401;49.344;6.240;2022-08-11T11:59:21;2.97;;;0.73;;
31836;SDS011;18401;49.344;6.240;2022-08-11T12:02:07;4.10;;;0.90;;
31836;SDS011;18401;49.344;6.240;2022-08-11T12:04:42;1.38;;;0.70;;
31836;SDS011;18401;49.344;6.240;2022-08-11T12:07:09;2.10;;;0.90;;
31836;SDS011;18401;49.344;6.240;2022-08-11T12:12:21;3.42;;;1.08;;
31836;SDS011;18401;49.344;6.240;2022-08-11T12:17:33;4.43;;;0.88;;
31836;SDS011;18401;49.344;6.240;2022-08-11T12:20:00;0.77;;;0.77;;
31836;SDS011;18401;49.344;6.240;2022-08-11T12:22:26;2.88;;;0.85;;
31836;SDS011;18401;49.344;6.240;2022-08-11T12:27:56;1.70;;;0.82;;
31836;SDS011;18401;49.344;6.240;2022-08-11T12:30:22;3.20;;;1.00;;
31836;SDS011;18401;49.344;6.240;2022-08-11T12:32:48;3.03;;;0.80;;
31836;SDS011;18401;49.344;6.240;2022-08-11T12:35:14;3.17;;;1.00;;
31836;SDS011;18401;49.344;6.240;2022-08-11T12:37:44;1.40;;;1.10;;
31836;SDS011;18401;49.344;6.240;2022-08-11T12:40:24;0.82;;;0.77;;
31836;SDS011;18401;49.344;6.240;2022-08-11T12:43:13;2.05;;;0.70;;
31836;SDS011;18401;49.344;6.240;2022-08-11T12:46:08;4.68;;;1.60;;
31836;SDS011;18401;49.344;6.240;2022-08-11T12:48:43;1.60;;;0.95;;
31836;SDS011;18401;49.344;6.240;2022-08-11T12:51:33;1.50;;;1.13;;
31836;SDS011;18401;49.344;6.240;2022-08-11T12:54:34;1.90;;;0.80;;
31836;SDS011;18401;49.344;6.240;2022-08-11T12:57:13;1.48;;;0.70;;
31836;SDS011;18401;49.344;6.240;2022-08-11T13:00:02;1.23;;;0.73;;
31836;SDS011;18401;49.344;6.240;2022-08-11T13:02:49;1.52;;;0.68;;
31836;SDS011;18401;49.344;6.240;2022-08-11T13:05:35;3.72;;;1.02;;
31836;SDS011;18401;49.344;6.240;2022-08-11T13:08:02;11.10;;;1.25;;
31836;SDS011;18401;49.344;6.240;2022-08-11T13:10:28;3.42;;;0.90;;
31836;SDS011;18401;49.344;6.240;2022-08-11T13:13:15;3.92;;;0.90;;
31836;SDS011;18401;49.344;6.240;2022-08-11T13:15:42;2.00;;;1.20;;
31836;SDS011;18401;49.344;6.240;2022-08-11T13:18:09;0.93;;;0.75;;
31836;SDS011;18401;49.344;6.240;2022-08-11T13:20:39;2.70;;;0.75;;
31836;SDS011;18401;49.344;6.240;2022-08-11T13:23:05;1.33;;;0.93;;
31836;SDS011;18401;49.344;6.240;2022-08-11T13:25:31;2.75;;;0.73;;
31836;SDS011;18401;49.344;6.240;2022-08-11T13:27:58;2.15;;;0.80;;
31836;SDS011;18401;49.344;6.240;2022-08-11T13:30:25;1.45;;;1.08;;
31836;SDS011;18401;49.344;6.240;2022-08-11T13:33:13;0.70;;;0.70;;
31836;SDS011;18401;49.344;6.240;2022-08-11T13:35:41;5.15;;;0.70;;
31836;SDS011;18401;49.344;6.240;2022-08-11T13:38:13;6.63;;;0.90;;
31836;SDS011;18401;49.344;6.240;2022-08-11T13:40:41;2.47;;;1.00;;
31836;SDS011;18401;49.344;6.240;2022-08-11T13:43:07;5.95;;;1.70;;
31836;SDS011;18401;49.344;6.240;2022-08-11T13:45:34;6.57;;;0.82;;
31836;SDS011;18401;49.344;6.240;2022-08-11T13:48:02;4.30;;;1.60;;
31836;SDS011;18401;49.344;6.240;2022-08-11T13:50:31;5.25;;;1.38;;
31836;SDS011;18401;49.344;6.240;2022-08-11T13:53:17;1.58;;;0.90;;
31836;SDS011;18401;49.344;6.240;2022-08-11T13:55:46;1.00;;;0.77;;
31836;SDS011;18401;49.344;6.240;2022-08-11T13:58:13;7.47;;;1.30;;
31836;SDS011;18401;49.344;6.240;2022-08-11T14:00:39;2.97;;;1.00;;
31836;SDS011;18401;49.344;6.240;2022-08-11T14:03:09;2.78;;;1.20;;
31836;SDS011;18401;49.344;6.240;2022-08-11T14:05:42;1.73;;;1.33;;
31836;SDS011;18401;49.344;6.240;2022-08-11T14:08:14;1.35;;;1.00;;
31836;SDS011;18401;49.344;6.240;2022-08-11T14:10:42;4.65;;;1.13;;
31836;SDS011;18401;49.344;6.240;2022-08-11T14:13:31;3.22;;;0.93;;
31836;SDS011;18401;49.344;6.240;2022-08-11T14:16:05;1.42;;;1.15;;
31836;SDS011;18401;49.344;6.240;2022-08-11T14:18:57;4.53;;;1.08;;
31836;SDS011;18401;49.344;6.240;2022-08-11T14:21:26;5.88;;;1.20;;
31836;SDS011;18401;49.344;6.240;2022-08-11T14:24:13;2.25;;;1.10;;
31836;SDS011;18401;49.344;6.240;2022-08-11T14:26:41;5.40;;;1.38;;
31836;SDS011;18401;49.344;6.240;2022-08-11T14:31:54;5.55;;;1.25;;
31836;SDS011;18401;49.344;6.240;2022-08-11T14:34:25;2.65;;;1.33;;
31836;SDS011;18401;49.344;6.240;2022-08-11T14:36:55;1.88;;;1.33;;
31836;SDS011;18401;49.344;6.240;2022-08-11T14:39:27;4.38;;;1.23;;
31836;SDS011;18401;49.344;6.240;2022-08-11T14:41:59;2.90;;;1.40;;
31836;SDS011;18401;49.344;6.240;2022-08-11T14:44:55;3.58;;;1.60;;
31836;SDS011;18401;49.344;6.240;2022-08-11T14:47:41;3.67;;;1.50;;
31836;SDS011;18401;49.344;6.240;2022-08-11T14:50:10;3.30;;;1.52;;
31836;SDS011;18401;49.344;6.240;2022-08-11T14:52:51;1.55;;;1.13;;
31836;SDS011;18401;49.344;6.240;2022-08-11T14:55:21;3.88;;;1.13;;
31836;SDS011;18401;49.344;6.240;2022-08-11T14:58:07;5.85;;;1.05;;
31836;SDS011;18401;49.344;6.240;2022-08-11T15:00:35;3.88;;;1.42;;
31836;SDS011;18401;49.344;6.240;2022-08-11T15:03:02;7.85;;;1.48;;
31836;SDS011;18401;49.344;6.240;2022-08-11T15:05:36;1.58;;;1.42;;
31836;SDS011;18401;49.344;6.240;2022-08-11T15:08:08;1.92;;;1.38;;
31836;SDS011;18401;49.344;6.240;2022-08-11T15:10:37;3.35;;;1.50;;
31836;SDS011;18401;49.344;6.240;2022-08-11T15:13:03;2.30;;;1.23;;
31836;SDS011;18401;49.344;6.240;2022-08-11T15:15:29;1.40;;;1.30;;
31836;SDS011;18401;49.344;6.240;2022-08-11T15:18:16;4.28;;;1.30;;
31836;SDS011;18401;49.344;6.240;2022-08-11T15:20:43;3.17;;;1.30;;
31836;SDS011;18401;49.344;6.240;2022-08-11T15:23:28;5.93;;;1.25;;
31836;SDS011;18401;49.344;6.240;2022-08-11T15:26:14;2.05;;;1.38;;
31836;SDS011;18401;49.344;6.240;2022-08-11T15:29:07;2.70;;;1.23;;
31836;SDS011;18401;49.344;6.240;2022-08-11T15:31:53;2.08;;;1.20;;
31836;SDS011;18401;49.344;6.240;2022-08-11T15:37:23;5.20;;;1.13;;
31836;SDS011;18401;49.344;6.240;2022-08-11T15:39:52;1.10;;;1.00;;
31836;SDS011;18401;49.344;6.240;2022-08-11T15:42:57;1.40;;;1.10;;
31836;SDS011;18401;49.344;6.240;2022-08-11T15:46:19;3.70;;;1.30;;
31836;SDS011;18401;49.344;6.240;2022-08-11T15:48:55;4.40;;;1.23;;
31836;SDS011;18401;49.344;6.240;2022-08-11T15:51:29;5.30;;;1.08;;
31836;SDS011;18401;49.344;6.240;2022-08-11T15:54:02;3.58;;;1.17;;
31836;SDS011;18401;49.344;6.240;2022-08-11T15:56:32;3.67;;;0.85;;
31836;SDS011;18401;49.344;6.240;2022-08-11T15:59:01;5.05;;;0.90;;
31836;SDS011;18401;49.344;6.240;2022-08-11T16:01:47;6.43;;;1.02;;
31836;SDS011;18401;49.344;6.240;2022-08-11T16:04:34;4.53;;;0.90;;
31836;SDS011;18401;49.344;6.240;2022-08-11T16:07:05;7.18;;;0.80;;
31836;SDS011;18401;49.344;6.240;2022-08-11T16:12:56;1.15;;;0.82;;
31836;SDS011;18401;49.344;6.240;2022-08-11T16:15:33;1.02;;;0.93;;
31836;SDS011;18401;49.344;6.240;2022-08-11T16:18:21;1.60;;;1.02;;
31836;SDS011;18401;49.344;6.240;2022-08-11T16:21:04;1.83;;;1.00;;
31836;SDS011;18401;49.344;6.240;2022-08-11T16:23:39;2.08;;;1.05;;
31836;SDS011;18401;49.344;6.240;2022-08-11T16:26:08;3.22;;;0.98;;
31836;SDS011;18401;49.344;6.240;2022-08-11T16:28:36;6.90;;;1.00;;
31836;SDS011;18401;49.344;6.240;2022-08-11T16:31:04;0.77;;;0.77;;
31836;SDS011;18401;49.344;6.240;2022-08-11T16:33:34;4.03;;;0.90;;
31836;SDS011;18401;49.344;6.240;2022-08-11T16:36:05;7.07;;;0.80;;
31836;SDS011;18401;49.344;6.240;2022-08-11T16:38:51;4.30;;;1.08;;
31836;SDS011;18401;49.344;6.240;2022-08-11T16:41:22;2.85;;;0.57;;
31836;SDS011;18401;49.344;6.240;2022-08-11T16:44:10;3.15;;;0.70;;
31836;SDS011;18401;49.344;6.240;2022-08-11T16:46:57;4.53;;;0.80;;
31836;SDS011;18401;49.344;6.240;2022-08-11T16:49:30;1.17;;;0.70;;
31836;SDS011;18401;49.344;6.240;2022-08-11T16:52:02;2.63;;;0.80;;
31836;SDS011;18401;49.344;6.240;2022-08-11T16:54:33;3.58;;;0.80;;
31836;SDS011;18401;49.344;6.240;2022-08-11T16:56:59;1.48;;;0.80;;
31836;SDS011;18401;49.344;6.240;2022-08-11T16:59:47;2.67;;;0.93;;
31836;SDS011;18401;49.344;6.240;2022-08-11T17:02:15;2.17;;;1.00;;
31836;SDS011;18401;49.344;6.240;2022-08-11T17:05:10;5.10;;;1.20;;
31836;SDS011;18401;49.344;6.240;2022-08-11T17:08:00;6.53;;;0.93;;
31836;SDS011;18401;49.344;6.240;2022-08-11T17:10:48;4.43;;;0.88;;
31836;SDS011;18401;49.344;6.240;2022-08-11T17:13:45;9.60;;;0.90;;
31836;SDS011;18401;49.344;6.240;2022-08-11T17:16:23;1.08;;;0.77;;
31836;SDS011;18401;49.344;6.240;2022-08-11T17:18:57;1.38;;;0.80;;
31836;SDS011;18401;49.344;6.240;2022-08-11T17:21:24;3.65;;;1.20;;
31836;SDS011;18401;49.344;6.240;2022-08-11T17:23:58;1.10;;;0.70;;
31836;SDS011;18401;49.344;6.240;2022-08-11T17:29:32;0.60;;;0.60;;
31836;SDS011;18401;49.344;6.240;2022-08-11T17:32:00;9.07;;;1.27;;
31836;SDS011;18401;49.344;6.240;2022-08-11T17:34:47;2.15;;;0.88;;
31836;SDS011;18401;49.344;6.240;2022-08-11T17:37:33;1.63;;;1.40;;
31836;SDS011;18401;49.344;6.240;2022-08-11T17:40:01;2.50;;;0.88;;
31836;SDS011;18401;49.344;6.240;2022-08-11T17:42:30;3.92;;;1.20;;
31836;SDS011;18401;49.344;6.240;2022-08-11T17:45:19;1.75;;;1.20;;
31836;SDS011;18401;49.344;6.240;2022-08-11T17:48:28;1.25;;;1.15;;
31836;SDS011;18401;49.344;6.240;2022-08-11T17:51:01;5.10;;;1.80;;
31836;SDS011;18401;49.344;6.240;2022-08-11T17:56:19;1.30;;;1.20;;
31836;SDS011;18401;49.344;6.240;2022-08-11T17:59:06;8.07;;;1.38;;
31836;SDS011;18401;49.344;6.240;2022-08-11T18:01:51;1.98;;;1.42;;
31836;SDS011;18401;49.344;6.240;2022-08-11T18:04:19;3.38;;;1.00;;
31836;SDS011;18401;49.344;6.240;2022-08-11T18:06:46;6.15;;;1.67;;
31836;SDS011;18401;49.344;6.240;2022-08-11T18:09:17;2.35;;;1.33;;
31836;SDS011;18401;49.344;6.240;2022-08-11T18:12:05;3.42;;;1.58;;
31836;SDS011;18401;49.344;6.240;2022-08-11T18:14:50;3.15;;;1.30;;
31836;SDS011;18401;49.344;6.240;2022-08-11T18:17:38;5.82;;;1.17;;
31836;SDS011;18401;49.344;6.240;2022-08-11T18:20:23;1.10;;;1.00;;
31836;SDS011;18401;49.344;6.240;2022-08-11T18:23:13;4.32;;;1.42;;
31836;SDS011;18401;49.344;6.240;2022-08-11T18:26:01;4.35;;;1.45;;
31836;SDS011;18401;49.344;6.240;2022-08-11T18:28:50;10.23;;;1.30;;
31836;SDS011;18401;49.344;6.240;2022-08-11T18:31:41;4.05;;;1.67;;
31836;SDS011;18401;49.344;6.240;2022-08-11T18:34:32;1.60;;;1.20;;
31836;SDS011;18401;49.344;6.240;2022-08-11T18:37:30;3.00;;;1.20;;
31836;SDS011;18401;49.344;6.240;2022-08-11T18:40:22;3.85;;;1.20;;
31836;SDS011;18401;49.344;6.240;2022-08-11T18:43:10;1.88;;;1.10;;
31836;SDS011;18401;49.344;6.240;2022-08-11T18:45:58;6.10;;;2.13;;
31836;SDS011;18401;49.344;6.240;2022-08-11T18:48:46;4.57;;;1.45;;
31836;SDS011;18401;49.344;6.240;2022-08-11T18:51:33;1.58;;;1.10;;
31836;SDS011;18401;49.344;6.240;2022-08-11T18:54:21;4.60;;;1.10;;
31836;SDS011;18401;49.344;6.240;2022-08-11T18:57:07;3.72;;;1.67;;
31836;SDS011;18401;49.344;6.240;2022-08-11T18:59:53;7.97;;;1.60;;
31836;SDS011;18401;49.344;6.240;2022-08-11T19:02:39;2.13;;;1.60;;
31836;SDS011;18401;49.344;6.240;2022-08-11T19:05:24;6.18;;;1.60;;
31836;SDS011;18401;49.344;6.240;2022-08-11T19:08:12;5.20;;;1.40;;
31836;SDS011;18401;49.344;6.240;2022-08-11T19:10:57;2.72;;;1.20;;
31836;SDS011;18401;49.344;6.240;2022-08-11T19:13:41;1.95;;;1.70;;
31836;SDS011;18401;49.344;6.240;2022-08-11T19:16:28;2.63;;;1.65;;
31836;SDS011;18401;49.344;6.240;2022-08-11T19:19:14;2.38;;;1.50;;
31836;SDS011;18401;49.344;6.240;2022-08-11T19:24:46;2.75;;;1.70;;
31836;SDS011;18401;49.344;6.240;2022-08-11T19:27:33;2.15;;;1.60;;
31836;SDS011;18401;49.344;6.240;2022-08-11T19:30:19;3.90;;;1.55;;
31836;SDS011;18401;49.344;6.240;2022-08-11T19:33:04;2.63;;;1.67;;
31836;SDS011;18401;49.344;6.240;2022-08-11T19:35:48;4.50;;;1.65;;
31836;SDS011;18401;49.344;6.240;2022-08-11T19:38:33;3.17;;;1.65;;
31836;SDS011;18401;49.344;6.240;2022-08-11T19:41:20;1.60;;;1.33;;
31836;SDS011;18401;49.344;6.240;2022-08-11T19:44:06;1.52;;;1.40;;
31836;SDS011;18401;49.344;6.240;2022-08-11T19:46:52;3.53;;;1.90;;
31836;SDS011;18401;49.344;6.240;2022-08-11T19:49:37;1.75;;;1.65;;
31836;SDS011;18401;49.344;6.240;2022-08-11T19:52:24;7.43;;;1.88;;
31836;SDS011;18401;49.344;6.240;2022-08-11T19:55:09;3.58;;;1.70;;
31836;SDS011;18401;49.344;6.240;2022-08-11T19:57:54;7.13;;;1.98;;
31836;SDS011;18401;49.344;6.240;2022-08-11T20:00:40;4.32;;;1.90;;
31836;SDS011;18401;49.344;6.240;2022-08-11T20:03:25;6.47;;;1.75;;
31836;SDS011;18401;49.344;6.240;2022-08-11T20:06:10;1.67;;;1.45;;
31836;SDS011;18401;49.344;6.240;2022-08-11T20:08:59;2.85;;;1.70;;
31836;SDS011;18401;49.344;6.240;2022-08-11T20:11:48;4.18;;;1.67;;
31836;SDS011;18401;49.344;6.240;2022-08-11T20:14:38;3.70;;;1.85;;
31836;SDS011;18401;49.344;6.240;2022-08-11T20:17:25;3.30;;;1.35;;
31836;SDS011;18401;49.344;6.240;2022-08-11T20:20:14;2.05;;;1.80;;
31836;SDS011;18401;49.344;6.240;2022-08-11T20:25:45;1.90;;;1.75;;
31836;SDS011;18401;49.344;6.240;2022-08-11T20:31:15;2.00;;;1.70;;
31836;SDS011;18401;49.344;6.240;2022-08-11T20:34:03;3.67;;;1.52;;
31836;SDS011;18401;49.344;6.240;2022-08-11T20:36:49;1.90;;;1.70;;
31836;SDS011;18401;49.344;6.240;2022-08-11T20:39:34;2.60;;;1.92;;